createdAt,value
2018-07-06T00:01:08.578Z,100706.00
2018-07-06T00:03:55.122Z,100698.00
2018-07-06T00:06:41.575Z,100705.00
2018-07-06T00:09:27.917Z,100701.00
2018-07-06T00:12:14.074Z,100693.00
2018-07-06T00:15:00.449Z,100696.00
2018-07-06T00:17:46.854Z,100699.00
2018-07-06T00:20:33.300Z,100696.00
2018-07-06T00:23:19.958Z,100695.00
2018-07-06T00:26:06.309Z,100697.00
2018-07-06T00:28:52.967Z,100701.00
2018-07-06T00:31:39.357Z,100698.00
2018-07-06T00:34:25.685Z,100692.00
2018-07-06T00:37:12.188Z,100696.00
2018-07-06T00:39:58.386Z,100694.00
2018-07-06T00:42:44.599Z,100693.00
2018-07-06T00:45:30.978Z,100703.00
2018-07-06T00:48:17.290Z,100704.00
2018-07-06T00:51:03.992Z,100707.00
2018-07-06T00:53:50.424Z,100707.00
2018-07-06T00:56:36.750Z,100708.00
2018-07-06T00:59:23.266Z,100705.00
2018-07-06T01:02:09.712Z,100708.00
2018-07-06T01:04:56.164Z,100712.00
2018-07-06T01:07:42.619Z,100712.00
2018-07-06T01:10:29.069Z,100718.00
2018-07-06T01:13:15.787Z,100728.00
2018-07-06T01:16:01.971Z,100729.00
2018-07-06T01:18:48.384Z,100730.00
2018-07-06T01:21:34.779Z,100729.00
2018-07-06T01:24:21.180Z,100733.00
2018-07-06T01:27:07.602Z,100721.00
2018-07-06T01:29:53.849Z,100742.00
2018-07-06T01:32:40.122Z,100732.00
2018-07-06T01:35:26.451Z,100728.00
2018-07-06T01:38:12.751Z,100736.00
2018-07-06T01:40:59.095Z,100736.00
2018-07-06T01:43:45.226Z,100742.00
2018-07-06T01:46:31.493Z,100741.00
2018-07-06T01:49:17.868Z,100748.00
2018-07-06T01:52:04.297Z,100739.00
2018-07-06T01:54:50.687Z,100744.00
2018-07-06T01:57:37.254Z,100742.00
2018-07-06T02:00:23.476Z,100746.00
2018-07-06T02:03:09.834Z,100753.00
2018-07-06T02:05:56.346Z,100751.00
2018-07-06T02:08:42.718Z,100755.00
2018-07-06T02:11:29.052Z,100748.00
2018-07-06T02:14:15.445Z,100749.00
2018-07-06T02:17:01.651Z,100752.00
2018-07-06T02:19:47.875Z,100747.00
2018-07-06T02:22:34.712Z,100753.00
2018-07-06T02:25:21.153Z,100743.00
2018-07-06T02:28:07.581Z,100739.00
2018-07-06T02:30:53.969Z,100743.00
2018-07-06T02:33:40.368Z,100748.00
2018-07-06T02:36:26.790Z,100751.00
2018-07-06T02:39:13.210Z,100741.00
2018-07-06T02:41:59.479Z,100747.00
2018-07-06T02:44:45.992Z,100743.00
2018-07-06T02:47:32.432Z,100747.00
2018-07-06T02:50:18.758Z,100753.00
2018-07-06T02:53:05.157Z,100752.00
2018-07-06T02:55:51.681Z,100748.00
2018-07-06T02:58:38.040Z,100757.00
2018-07-06T03:01:24.394Z,100759.00
2018-07-06T03:04:10.849Z,100762.00
2018-07-06T03:06:57.421Z,100764.00
2018-07-06T03:09:43.907Z,100765.00
2018-07-06T03:12:30.249Z,100772.00
2018-07-06T03:15:16.688Z,100771.00
2018-07-06T03:18:02.880Z,100777.00
2018-07-06T03:20:49.261Z,100766.00
2018-07-06T03:23:35.673Z,100778.00
2018-07-06T03:26:22.147Z,100780.00
2018-07-06T03:29:08.582Z,100771.00
2018-07-06T03:31:55.032Z,100772.00
2018-07-06T03:34:41.246Z,100777.00
2018-07-06T03:37:27.424Z,100778.00
2018-07-06T03:40:13.989Z,100781.00
2018-07-06T03:43:00.233Z,100780.00
2018-07-06T03:45:47.001Z,100778.00
2018-07-06T03:48:33.444Z,100774.00
2018-07-06T03:51:19.900Z,100791.00
2018-07-06T03:54:06.210Z,100781.00
2018-07-06T03:56:52.697Z,100768.00
2018-07-06T03:59:39.057Z,100773.00
2018-07-06T04:02:25.619Z,100786.00
2018-07-06T04:05:12.042Z,100780.00
2018-07-06T04:07:58.272Z,100786.00
2018-07-06T04:10:44.553Z,100782.00
2018-07-06T04:13:30.923Z,100790.00
2018-07-06T04:16:17.425Z,100789.00
2018-07-06T04:19:09.149Z,100793.00
2018-07-06T04:21:55.658Z,100795.00
2018-07-06T04:24:41.970Z,100798.00
2018-07-06T04:27:28.409Z,100796.00
2018-07-06T04:30:14.954Z,100793.00
2018-07-06T04:33:01.079Z,100799.00
2018-07-06T04:35:47.388Z,100800.00
2018-07-06T04:38:33.777Z,100798.00
2018-07-06T04:41:20.189Z,100806.00
2018-07-06T04:44:06.697Z,100806.00
2018-07-06T04:46:53.079Z,100804.00
2018-07-06T04:49:39.494Z,100813.00
2018-07-06T04:52:25.748Z,100808.00
2018-07-06T04:55:12.071Z,100807.00
2018-07-06T04:57:58.415Z,100808.00
2018-07-06T05:00:44.758Z,100808.00
2018-07-06T05:03:31.225Z,100815.00
2018-07-06T05:06:17.521Z,100817.00
2018-07-06T05:09:04.965Z,100820.00
2018-07-06T05:11:51.041Z,100826.00
2018-07-06T05:14:37.343Z,100814.00
2018-07-06T05:17:23.791Z,100822.00
2018-07-06T05:20:10.113Z,100827.00
2018-07-06T05:22:56.430Z,100829.00
2018-07-06T05:25:42.820Z,100838.00
2018-07-06T05:28:29.372Z,100837.00
2018-07-06T05:31:15.698Z,100822.00
2018-07-06T05:34:02.235Z,100834.00
2018-07-06T05:36:48.603Z,100844.00
2018-07-06T05:39:35.063Z,100849.00
2018-07-06T05:42:21.393Z,100853.00
2018-07-06T05:45:07.588Z,100854.00
2018-07-06T05:47:54.836Z,100847.00
2018-07-06T05:50:41.105Z,100857.00
2018-07-06T05:53:27.510Z,100858.00
2018-07-06T05:56:13.761Z,100858.00
2018-07-06T05:59:00.255Z,100864.00
2018-07-06T06:01:46.752Z,100864.00
2018-07-06T06:04:33.038Z,100868.00
2018-07-06T06:07:19.331Z,100874.00
2018-07-06T06:09:48.465Z,100873.00
2018-07-06T06:12:17.976Z,100887.00
2018-07-06T06:14:47.077Z,100883.00
2018-07-06T06:17:16.186Z,100885.00
2018-07-06T06:19:45.320Z,100883.00
2018-07-06T06:22:14.466Z,100883.00
2018-07-06T06:24:43.589Z,100884.00
2018-07-06T06:27:12.724Z,100888.00
2018-07-06T06:29:42.002Z,100890.00
2018-07-06T06:32:11.201Z,100892.00
2018-07-06T06:34:40.380Z,100893.00
2018-07-06T06:37:09.515Z,100896.00
2018-07-06T06:39:38.683Z,100899.00
2018-07-06T06:42:07.871Z,100895.00
2018-07-06T06:44:36.971Z,100896.00
2018-07-06T06:47:06.149Z,100887.00
2018-07-06T06:49:35.330Z,100896.00
2018-07-06T06:52:04.489Z,100900.00
2018-07-06T06:54:33.682Z,100910.00
2018-07-06T06:57:02.835Z,100907.00
2018-07-06T06:59:32.016Z,100915.00
2018-07-06T07:02:01.202Z,100910.00
2018-07-06T07:04:30.406Z,100907.00
2018-07-06T07:06:59.524Z,100923.00
2018-07-06T07:09:28.793Z,100920.00
2018-07-06T07:11:57.958Z,100918.00
2018-07-06T07:14:27.106Z,100917.00
2018-07-06T07:16:56.269Z,100906.00
2018-07-06T07:19:25.465Z,100920.00
2018-07-06T07:21:54.628Z,100913.00
2018-07-06T07:24:23.821Z,100917.00
2018-07-06T07:26:53.044Z,100915.00
2018-07-06T07:29:22.250Z,100921.00
2018-07-06T07:31:52.296Z,100927.00
2018-07-06T07:34:21.533Z,100923.00
2018-07-06T07:36:50.689Z,100920.00
2018-07-06T07:39:19.805Z,100913.00
2018-07-06T07:41:48.963Z,100919.00
2018-07-06T07:44:18.140Z,100932.00
2018-07-06T07:46:47.225Z,100926.00
2018-07-06T07:49:16.333Z,100928.00
2018-07-06T07:52:06.043Z,100927.00
2018-07-06T07:54:48.183Z,100927.00
2018-07-06T07:57:17.389Z,100928.00
2018-07-06T07:59:46.919Z,100930.00
2018-07-06T08:02:16.529Z,100940.00
2018-07-06T08:04:45.906Z,100941.00
2018-07-06T08:07:15.133Z,100937.00
2018-07-06T08:09:44.525Z,100943.00
2018-07-06T08:12:13.649Z,100933.00
2018-07-06T08:14:43.230Z,100934.00
2018-07-06T08:17:12.436Z,100946.00
2018-07-06T08:19:41.602Z,100940.00
2018-07-06T08:22:11.729Z,100944.00
2018-07-06T08:24:40.905Z,100938.00
2018-07-06T08:27:10.069Z,100935.00
2018-07-06T08:29:39.225Z,100946.00
2018-07-06T08:32:08.401Z,100947.00
2018-07-06T08:34:54.885Z,100943.00
2018-07-06T08:37:45.446Z,100942.00
2018-07-06T08:40:14.926Z,100949.00
2018-07-06T08:42:45.353Z,100948.00
2018-07-06T08:45:14.749Z,100953.00
2018-07-06T08:47:44.289Z,100959.00
2018-07-06T08:50:13.516Z,100953.00
2018-07-06T08:52:43.840Z,100958.00
2018-07-06T08:55:12.948Z,100956.00
2018-07-06T08:57:43.166Z,100963.00
2018-07-06T09:00:13.009Z,100971.00
2018-07-06T09:02:42.326Z,100968.00
2018-07-06T09:05:12.185Z,100969.00
2018-07-06T09:07:41.478Z,100979.00
2018-07-06T09:10:10.615Z,100976.00
2018-07-06T09:12:40.346Z,100972.00
2018-07-06T09:15:09.809Z,100974.00
2018-07-06T09:17:38.993Z,100977.00
2018-07-06T09:20:08.542Z,100979.00
2018-07-06T09:22:37.440Z,100983.00
2018-07-06T09:25:07.534Z,100983.00
2018-07-06T09:27:36.677Z,100983.00
2018-07-06T09:30:05.827Z,100977.00
2018-07-06T09:32:34.935Z,100977.00
2018-07-06T09:35:04.163Z,100976.00
2018-07-06T09:37:33.496Z,100978.00
2018-07-06T09:40:02.528Z,100980.00
2018-07-06T09:42:31.671Z,100976.00
2018-07-06T09:45:00.879Z,100979.00
2018-07-06T09:47:30.167Z,100968.00
2018-07-06T09:49:59.337Z,100978.00
2018-07-06T09:52:28.505Z,100975.00
2018-07-06T09:54:57.711Z,100968.00
2018-07-06T09:57:26.792Z,100978.00
2018-07-06T09:59:55.939Z,100975.00
2018-07-06T10:02:25.102Z,100977.00
2018-07-06T10:04:54.254Z,100980.00
2018-07-06T10:07:23.483Z,100975.00
2018-07-06T10:09:52.693Z,100981.00
2018-07-06T10:12:21.822Z,100985.00
2018-07-06T10:14:50.949Z,100985.00
2018-07-06T10:17:20.157Z,100990.00
2018-07-06T10:19:49.307Z,100986.00
2018-07-06T10:22:18.525Z,100991.00
2018-07-06T10:24:47.741Z,100991.00
2018-07-06T10:27:17.129Z,100993.00
2018-07-06T10:30:06.776Z,100996.00
2018-07-06T10:32:35.881Z,100999.00
2018-07-06T10:35:05.055Z,100992.00
2018-07-06T10:37:34.265Z,100994.00
2018-07-06T10:40:03.579Z,101004.00
2018-07-06T10:42:32.731Z,100997.00
2018-07-06T10:45:01.917Z,101002.00
2018-07-06T10:47:31.117Z,101002.00
2018-07-06T10:50:00.234Z,101008.00
2018-07-06T10:52:29.334Z,101010.00
2018-07-06T10:54:58.475Z,101017.00
2018-07-06T10:57:27.633Z,101009.00
2018-07-06T10:59:56.830Z,101017.00
2018-07-06T11:02:26.006Z,101006.00
2018-07-06T11:04:55.239Z,101013.00
2018-07-06T11:07:24.333Z,101019.00
2018-07-06T11:09:53.513Z,101003.00
2018-07-06T11:12:22.755Z,101011.00
2018-07-06T11:14:51.900Z,101004.00
2018-07-06T11:17:21.034Z,101014.00
2018-07-06T11:19:50.148Z,101010.00
2018-07-06T11:22:19.376Z,101011.00
2018-07-06T11:24:48.546Z,101039.00
2018-07-06T11:27:17.667Z,101005.00
2018-07-06T11:29:46.842Z,101020.00
2018-07-06T11:32:16.121Z,101023.00
2018-07-06T11:34:45.165Z,101021.00
2018-07-06T11:37:14.310Z,101026.00
2018-07-06T11:39:43.449Z,101025.00
2018-07-06T11:42:12.590Z,101015.00
2018-07-06T11:44:41.784Z,101015.00
2018-07-06T11:47:11.242Z,101016.00
2018-07-06T11:49:40.422Z,101007.00
2018-07-06T11:52:09.594Z,101016.00
2018-07-06T11:54:39.389Z,101019.00
2018-07-06T11:57:08.533Z,101029.00
2018-07-06T11:59:37.688Z,101024.00
2018-07-06T12:02:06.843Z,101036.00
2018-07-06T12:04:36.068Z,101031.00
2018-07-06T12:07:05.144Z,101030.00
2018-07-06T12:09:34.309Z,101032.00
2018-07-06T12:12:03.477Z,101027.00
2018-07-06T12:14:32.640Z,101036.00
2018-07-06T12:17:01.857Z,101031.00
2018-07-06T12:19:31.056Z,101037.00
2018-07-06T12:22:00.166Z,101035.00
2018-07-06T12:24:29.360Z,101034.00
2018-07-06T12:26:58.495Z,101037.00
2018-07-06T12:29:27.718Z,101032.00
2018-07-06T12:31:56.850Z,101034.00
2018-07-06T12:34:26.074Z,101040.00
2018-07-06T12:36:55.230Z,101037.00
2018-07-06T12:39:24.453Z,101037.00
2018-07-06T12:41:53.816Z,101035.00
2018-07-06T12:44:22.896Z,101042.00
2018-07-06T12:46:52.033Z,101038.00
2018-07-06T12:49:21.201Z,101029.00
2018-07-06T12:51:50.398Z,101029.00
2018-07-06T12:54:19.554Z,101023.00
2018-07-06T12:56:48.742Z,101033.00
2018-07-06T12:59:17.901Z,101038.00
2018-07-06T13:01:47.026Z,101028.00
2018-07-06T13:04:15.930Z,101029.00
2018-07-06T13:06:45.012Z,101028.00
2018-07-06T13:09:14.404Z,101022.00
2018-07-06T13:11:43.525Z,101014.00
2018-07-06T13:14:12.757Z,101010.00
2018-07-06T13:16:41.876Z,101014.00
2018-07-06T13:19:11.026Z,101013.00
2018-07-06T13:21:40.168Z,101016.00
2018-07-06T13:24:09.380Z,101013.00
2018-07-06T13:26:38.555Z,101021.00
2018-07-06T13:29:07.718Z,101012.00
2018-07-06T13:31:36.822Z,101020.00
2018-07-06T13:34:06.010Z,101013.00
2018-07-06T13:36:35.125Z,101017.00
2018-07-06T13:39:04.707Z,101016.00
2018-07-06T13:41:33.937Z,101011.00
2018-07-06T13:44:03.159Z,101009.00
2018-07-06T13:46:32.287Z,101013.00
2018-07-06T13:49:02.113Z,101010.00
2018-07-06T13:51:31.239Z,101009.00
2018-07-06T13:54:00.359Z,101029.00
2018-07-06T13:56:29.577Z,101029.00
2018-07-06T13:58:58.746Z,101035.00
2018-07-06T14:01:27.937Z,101031.00
2018-07-06T14:03:57.072Z,101031.00
2018-07-06T14:06:26.225Z,101024.00
2018-07-06T14:08:55.602Z,101035.00
2018-07-06T14:11:24.789Z,101028.00
2018-07-06T14:13:53.961Z,101025.00
2018-07-06T14:16:23.122Z,101032.00
2018-07-06T14:18:52.331Z,101020.00
2018-07-06T14:21:21.521Z,101021.00
2018-07-06T14:23:50.714Z,101024.00
2018-07-06T14:26:19.835Z,101023.00
2018-07-06T14:28:49.022Z,101028.00
2018-07-06T14:31:17.960Z,101030.00
2018-07-06T14:33:47.094Z,101042.00
2018-07-06T14:36:16.353Z,101029.00
2018-07-06T14:38:45.541Z,101025.00
2018-07-06T14:41:14.792Z,101024.00
2018-07-06T14:43:43.926Z,101029.00
2018-07-06T14:46:13.070Z,101032.00
2018-07-06T14:48:42.219Z,101025.00
2018-07-06T14:51:11.421Z,101022.00
2018-07-06T14:53:40.524Z,101023.00
2018-07-06T14:56:09.703Z,101012.00
2018-07-06T14:58:38.839Z,101026.00
2018-07-06T15:01:08.013Z,101024.00
2018-07-06T15:03:37.143Z,101022.00
2018-07-06T15:06:06.301Z,101014.00
2018-07-06T15:08:35.461Z,101019.00
2018-07-06T15:11:04.612Z,101020.00
2018-07-06T15:13:33.846Z,101018.00
2018-07-06T15:16:02.981Z,101030.00
2018-07-06T15:18:32.168Z,101019.00
2018-07-06T15:21:01.346Z,101017.00
2018-07-06T15:23:30.510Z,101017.00
2018-07-06T15:25:59.842Z,101018.00
2018-07-06T15:28:29.002Z,101022.00
2018-07-06T15:30:58.161Z,101021.00
2018-07-06T15:33:27.302Z,101033.00
2018-07-06T15:35:56.449Z,101031.00
2018-07-06T15:38:25.589Z,101027.00
2018-07-06T15:40:54.760Z,101033.00
2018-07-06T15:43:23.818Z,101022.00
2018-07-06T15:45:53.050Z,101021.00
2018-07-06T15:48:22.941Z,101025.00
2018-07-06T15:50:52.148Z,101018.00
2018-07-06T15:53:21.332Z,101021.00
2018-07-06T15:55:50.449Z,101024.00
2018-07-06T15:58:19.615Z,101024.00
2018-07-06T16:00:48.767Z,101021.00
2018-07-06T16:03:17.899Z,101022.00
2018-07-06T16:05:47.013Z,101019.00
2018-07-06T16:08:16.217Z,101023.00
2018-07-06T16:10:45.394Z,101021.00
2018-07-06T16:13:14.594Z,101015.00
2018-07-06T16:15:43.693Z,101015.00
2018-07-06T16:18:12.790Z,101021.00
2018-07-06T16:20:41.955Z,101020.00
2018-07-06T16:23:11.099Z,101020.00
2018-07-06T16:25:40.288Z,101024.00
2018-07-06T16:28:09.421Z,101016.00
2018-07-06T16:30:38.789Z,101024.00
2018-07-06T16:33:07.950Z,101008.00
2018-07-06T16:35:37.094Z,101012.00
2018-07-06T16:38:06.398Z,101009.00
2018-07-06T16:40:35.460Z,101011.00
2018-07-06T16:43:04.624Z,101012.00
2018-07-06T16:45:33.741Z,101017.00
2018-07-06T16:48:02.961Z,101017.00
2018-07-06T16:50:32.093Z,101016.00
2018-07-06T16:53:01.270Z,101012.00
2018-07-06T16:55:30.470Z,101010.00
2018-07-06T16:57:59.611Z,101008.00
2018-07-06T17:00:28.706Z,101007.00
2018-07-06T17:02:57.850Z,101014.00
2018-07-06T17:05:27.013Z,101011.00
2018-07-06T17:07:56.170Z,101003.00
2018-07-06T17:10:25.265Z,101012.00
2018-07-06T17:12:54.437Z,100999.00
2018-07-06T17:15:23.572Z,101003.00
2018-07-06T17:17:52.757Z,101005.00
2018-07-06T17:20:22.033Z,100994.00
2018-07-06T17:22:51.113Z,100995.00
2018-07-06T17:25:20.249Z,100991.00
2018-07-06T17:27:49.545Z,100998.00
2018-07-06T17:30:18.669Z,100999.00
2018-07-06T17:32:47.821Z,101011.00
2018-07-06T17:35:17.008Z,101005.00
2018-07-06T17:37:45.945Z,101009.00
2018-07-06T17:40:15.051Z,101004.00
2018-07-06T17:42:44.218Z,101000.00
2018-07-06T17:45:13.477Z,100990.00
2018-07-06T17:47:42.591Z,100991.00
2018-07-06T17:50:11.864Z,100992.00
2018-07-06T17:52:40.975Z,100981.00
2018-07-06T17:55:10.079Z,100987.00
2018-07-06T17:57:39.250Z,100989.00
2018-07-06T18:00:08.377Z,100990.00
2018-07-06T18:02:37.772Z,100987.00
2018-07-06T18:05:07.018Z,100987.00
2018-07-06T18:07:36.156Z,100986.00
2018-07-06T18:10:05.412Z,100984.00
2018-07-06T18:12:34.553Z,100985.00
2018-07-06T18:15:03.830Z,100992.00
2018-07-06T18:17:33.429Z,100990.00
2018-07-06T18:20:03.220Z,100987.00
2018-07-06T18:22:32.703Z,100985.00
2018-07-06T18:25:01.945Z,100996.00
2018-07-06T18:27:31.147Z,100994.00
2018-07-06T18:30:00.229Z,100993.00
2018-07-06T18:32:29.800Z,100991.00
2018-07-06T18:34:59.062Z,100999.00
2018-07-06T18:37:28.014Z,100987.00
2018-07-06T18:39:57.105Z,100992.00
2018-07-06T18:42:26.320Z,101000.00
2018-07-06T18:44:55.442Z,100993.00
2018-07-06T18:47:24.629Z,101006.00
2018-07-06T18:49:53.809Z,100999.00
2018-07-06T18:52:22.945Z,101005.00
2018-07-06T18:54:52.127Z,101010.00
2018-07-06T18:57:21.266Z,101004.00
2018-07-06T18:59:50.448Z,101010.00
2018-07-06T19:02:19.689Z,101014.00
2018-07-06T19:04:48.796Z,101012.00
2018-07-06T19:07:17.966Z,101012.00
2018-07-06T19:09:47.089Z,101014.00
2018-07-06T19:12:16.233Z,101022.00
2018-07-06T19:14:45.394Z,101018.00
2018-07-06T19:17:14.562Z,101021.00
2018-07-06T19:19:43.691Z,101033.00
2018-07-06T19:22:12.839Z,101028.00
2018-07-06T19:24:42.329Z,101034.00
2018-07-06T19:27:11.554Z,101037.00
2018-07-06T19:29:40.642Z,101037.00
2018-07-06T19:32:09.779Z,101039.00
2018-07-06T19:34:38.938Z,101049.00
2018-07-06T19:37:08.302Z,101050.00
2018-07-06T19:39:37.453Z,101055.00
2018-07-06T19:42:06.540Z,101059.00
2018-07-06T19:44:35.620Z,101051.00
2018-07-06T19:47:04.753Z,101066.00
2018-07-06T19:49:33.951Z,101066.00
2018-07-06T19:52:03.169Z,101073.00
2018-07-06T19:54:32.386Z,101075.00
2018-07-06T19:57:01.496Z,101076.00
2018-07-06T19:59:30.642Z,101095.00
2018-07-06T20:01:59.807Z,101095.00
2018-07-06T20:04:31.723Z,101095.00
2018-07-06T20:07:00.903Z,101090.00
2018-07-06T20:09:30.134Z,101093.00
2018-07-06T20:11:59.334Z,101106.00
2018-07-06T20:14:28.425Z,101112.00
2018-07-06T20:16:57.649Z,101116.00
2018-07-06T20:19:26.832Z,101113.00
2018-07-06T20:21:56.047Z,101113.00
2018-07-06T20:24:25.260Z,101119.00
2018-07-06T20:26:54.433Z,101126.00
2018-07-06T20:29:23.634Z,101138.00
2018-07-06T20:31:52.718Z,101133.00
2018-07-06T20:34:21.795Z,101135.00
2018-07-06T20:36:51.008Z,101135.00
2018-07-06T20:39:20.159Z,101137.00
2018-07-06T20:41:49.765Z,101138.00
2018-07-06T20:44:18.966Z,101140.00
2018-07-06T20:46:48.131Z,101143.00
2018-07-06T20:49:17.253Z,101154.00
2018-07-06T20:51:46.422Z,101140.00
2018-07-06T20:54:15.580Z,101146.00
2018-07-06T20:56:44.733Z,101153.00
2018-07-06T20:59:13.890Z,101150.00
2018-07-06T21:01:43.005Z,101155.00
2018-07-06T21:04:12.121Z,101155.00
2018-07-06T21:06:41.241Z,101157.00
2018-07-06T21:09:10.329Z,101147.00
2018-07-06T21:11:39.442Z,101162.00
2018-07-06T21:14:08.615Z,101164.00
2018-07-06T21:16:37.749Z,101170.00
2018-07-06T21:19:07.149Z,101171.00
2018-07-06T21:21:36.297Z,101173.00
2018-07-06T21:24:05.498Z,101176.00
2018-07-06T21:26:34.364Z,101171.00
2018-07-06T21:29:03.513Z,101183.00
2018-07-06T21:31:33.723Z,101189.00
2018-07-06T21:34:02.893Z,101180.00
2018-07-06T21:36:32.054Z,101190.00
2018-07-06T21:39:01.162Z,101190.00
2018-07-06T21:41:30.548Z,101193.00
2018-07-06T21:43:59.691Z,101192.00
2018-07-06T21:46:28.810Z,101189.00
2018-07-06T21:48:57.958Z,101196.00
2018-07-06T21:51:27.062Z,101199.00
2018-07-06T21:53:56.195Z,101196.00
2018-07-06T21:56:25.337Z,101200.00
2018-07-06T21:58:54.642Z,101196.00
2018-07-06T22:01:24.589Z,101202.00
2018-07-06T22:03:53.771Z,101191.00
2018-07-06T22:06:22.928Z,101203.00
2018-07-06T22:08:52.127Z,101205.00
2018-07-06T22:11:21.365Z,101204.00
2018-07-06T22:13:50.462Z,101212.00
2018-07-06T22:16:19.623Z,101208.00
2018-07-06T22:18:48.779Z,101218.00
2018-07-06T22:21:17.934Z,101202.00
2018-07-06T22:23:47.137Z,101202.00
2018-07-06T22:26:16.262Z,101210.00
2018-07-06T22:28:45.372Z,101210.00
2018-07-06T22:31:14.531Z,101213.00
2018-07-06T22:33:43.702Z,101210.00
2018-07-06T22:36:12.910Z,101206.00
2018-07-06T22:38:42.112Z,101214.00
2018-07-06T22:41:11.300Z,101226.00
2018-07-06T22:43:40.446Z,101215.00
2018-07-06T22:46:09.557Z,101214.00
2018-07-06T22:48:38.705Z,101216.00
2018-07-06T22:51:07.890Z,101212.00
2018-07-06T22:53:37.042Z,101221.00
2018-07-06T22:56:06.371Z,101222.00
2018-07-06T22:58:35.600Z,101219.00
2018-07-06T23:01:04.736Z,101223.00
2018-07-06T23:03:33.841Z,101219.00
2018-07-06T23:06:02.966Z,101224.00
2018-07-06T23:08:32.119Z,101227.00
2018-07-06T23:11:01.257Z,101216.00
2018-07-06T23:13:30.402Z,101218.00
2018-07-06T23:15:59.545Z,101223.00
2018-07-06T23:18:28.678Z,101217.00
2018-07-06T23:20:57.861Z,101230.00
2018-07-06T23:23:26.996Z,101235.00
2018-07-06T23:25:56.145Z,101229.00
2018-07-06T23:28:25.320Z,101234.00
2018-07-06T23:30:54.449Z,101236.00
2018-07-06T23:33:23.647Z,101234.00
2018-07-06T23:35:52.771Z,101232.00
2018-07-06T23:38:21.937Z,101235.00
2018-07-06T23:40:51.082Z,101233.00
2018-07-06T23:43:20.278Z,101227.00
2018-07-06T23:45:49.425Z,101234.00
2018-07-06T23:48:18.664Z,101234.00
2018-07-06T23:50:47.797Z,101234.00
2018-07-06T23:53:16.949Z,101226.00
2018-07-06T23:55:46.099Z,101242.00
2018-07-06T23:58:15.206Z,101245.00
